sensor_id;sensor_type;location;lat;lon;timestamp;P1;durP1;ratioP1;P2;durP2;ratioP2
61112;SDS011;47184;57.998;56.184;2022-09-21T00:00:41;2.17;;;1.30;;
61112;SDS011;47184;57.998;56.184;2022-09-21T00:03:07;3.28;;;1.60;;
61112;SDS011;47184;57.998;56.184;2022-09-21T00:05:34;5.88;;;1.60;;
61112;SDS011;47184;57.998;56.184;2022-09-21T00:08:00;5.75;;;2.25;;
61112;SDS011;47184;57.998;56.184;2022-09-21T00:10:28;5.05;;;1.40;;
61112;SDS011;47184;57.998;56.184;2022-09-21T00:12:55;6.88;;;1.80;;
61112;SDS011;47184;57.998;56.184;2022-09-21T00:15:23;3.88;;;1.33;;
61112;SDS011;47184;57.998;56.184;2022-09-21T00:17:53;1.75;;;0.70;;
61112;SDS011;47184;57.998;56.184;2022-09-21T00:20:21;2.05;;;1.40;;
61112;SDS011;47184;57.998;56.184;2022-09-21T00:22:49;3.33;;;1.70;;
61112;SDS011;47184;57.998;56.184;2022-09-21T00:25:16;0.90;;;0.52;;
61112;SDS011;47184;57.998;56.184;2022-09-21T00:27:43;2.70;;;1.58;;
61112;SDS011;47184;57.998;56.184;2022-09-21T00:30:12;3.67;;;1.35;;
61112;SDS011;47184;57.998;56.184;2022-09-21T00:32:39;6.35;;;1.77;;
61112;SDS011;47184;57.998;56.184;2022-09-21T00:35:06;19.92;;;2.05;;
61112;SDS011;47184;57.998;56.184;2022-09-21T00:37:34;3.70;;;1.45;;
61112;SDS011;47184;57.998;56.184;2022-09-21T00:40:01;4.07;;;1.92;;
61112;SDS011;47184;57.998;56.184;2022-09-21T00:42:33;1.80;;;1.13;;
61112;SDS011;47184;57.998;56.184;2022-09-21T00:44:59;1.05;;;0.73;;
61112;SDS011;47184;57.998;56.184;2022-09-21T00:50:11;5.53;;;1.42;;
61112;SDS011;47184;57.998;56.184;2022-09-21T00:52:41;3.58;;;1.55;;
61112;SDS011;47184;57.998;56.184;2022-09-21T00:55:12;2.40;;;1.38;;
61112;SDS011;47184;57.998;56.184;2022-09-21T00:57:40;3.40;;;1.67;;
61112;SDS011;47184;57.998;56.184;2022-09-21T01:00:08;7.35;;;1.85;;
61112;SDS011;47184;57.998;56.184;2022-09-21T01:02:35;2.45;;;1.10;;
61112;SDS011;47184;57.998;56.184;2022-09-21T01:05:06;3.25;;;1.23;;
61112;SDS011;47184;57.998;56.184;2022-09-21T01:07:35;5.90;;;2.00;;
61112;SDS011;47184;57.998;56.184;2022-09-21T01:10:05;3.22;;;1.90;;
61112;SDS011;47184;57.998;56.184;2022-09-21T01:20:59;2.25;;;1.20;;
61112;SDS011;47184;57.998;56.184;2022-09-21T01:26:15;4.45;;;2.15;;
61112;SDS011;47184;57.998;56.184;2022-09-21T01:31:25;6.70;;;1.75;;
61112;SDS011;47184;57.998;56.184;2022-09-21T01:33:59;4.93;;;1.48;;
61112;SDS011;47184;57.998;56.184;2022-09-21T01:36:31;3.60;;;1.88;;
61112;SDS011;47184;57.998;56.184;2022-09-21T01:39:05;2.33;;;1.20;;
61112;SDS011;47184;57.998;56.184;2022-09-21T01:41:34;7.93;;;1.65;;
61112;SDS011;47184;57.998;56.184;2022-09-21T01:44:05;3.47;;;1.83;;
61112;SDS011;47184;57.998;56.184;2022-09-21T01:46:35;6.25;;;2.40;;
61112;SDS011;47184;57.998;56.184;2022-09-21T01:49:07;5.00;;;1.90;;
61112;SDS011;47184;57.998;56.184;2022-09-21T01:51:38;3.15;;;1.65;;
61112;SDS011;47184;57.998;56.184;2022-09-21T01:54:17;2.72;;;1.42;;
61112;SDS011;47184;57.998;56.184;2022-09-21T01:56:50;7.20;;;2.70;;
61112;SDS011;47184;57.998;56.184;2022-09-21T01:59:29;3.42;;;1.83;;
61112;SDS011;47184;57.998;56.184;2022-09-21T02:02:26;5.05;;;1.77;;
61112;SDS011;47184;57.998;56.184;2022-09-21T02:05:00;14.88;;;2.90;;
61112;SDS011;47184;57.998;56.184;2022-09-21T02:07:28;7.40;;;2.40;;
61112;SDS011;47184;57.998;56.184;2022-09-21T02:09:55;14.43;;;2.90;;
61112;SDS011;47184;57.998;56.184;2022-09-21T02:12:22;5.78;;;2.17;;
61112;SDS011;47184;57.998;56.184;2022-09-21T02:14:48;20.52;;;2.40;;
61112;SDS011;47184;57.998;56.184;2022-09-21T02:17:24;5.20;;;2.50;;
61112;SDS011;47184;57.998;56.184;2022-09-21T02:20:35;3.85;;;1.98;;
61112;SDS011;47184;57.998;56.184;2022-09-21T02:23:05;2.45;;;1.25;;
61112;SDS011;47184;57.998;56.184;2022-09-21T02:28:21;3.80;;;1.92;;
61112;SDS011;47184;57.998;56.184;2022-09-21T02:31:10;10.30;;;1.73;;
61112;SDS011;47184;57.998;56.184;2022-09-21T02:36:27;2.22;;;1.42;;
61112;SDS011;47184;57.998;56.184;2022-09-21T02:39:02;2.22;;;1.15;;
61112;SDS011;47184;57.998;56.184;2022-09-21T02:44:28;3.63;;;1.55;;
61112;SDS011;47184;57.998;56.184;2022-09-21T02:49:40;2.30;;;1.40;;
61112;SDS011;47184;57.998;56.184;2022-09-21T02:52:12;0.93;;;0.70;;
61112;SDS011;47184;57.998;56.184;2022-09-21T02:54:42;8.15;;;2.30;;
61112;SDS011;47184;57.998;56.184;2022-09-21T02:57:14;5.43;;;1.90;;
61112;SDS011;47184;57.998;56.184;2022-09-21T02:59:43;8.15;;;2.38;;
61112;SDS011;47184;57.998;56.184;2022-09-21T03:02:09;5.15;;;2.20;;
61112;SDS011;47184;57.998;56.184;2022-09-21T03:04:37;3.50;;;2.13;;
61112;SDS011;47184;57.998;56.184;2022-09-21T03:07:07;3.35;;;1.98;;
61112;SDS011;47184;57.998;56.184;2022-09-21T03:09:33;7.28;;;3.45;;
61112;SDS011;47184;57.998;56.184;2022-09-21T03:12:15;4.85;;;1.55;;
61112;SDS011;47184;57.998;56.184;2022-09-21T03:14:42;6.63;;;2.08;;
61112;SDS011;47184;57.998;56.184;2022-09-21T03:17:08;6.85;;;2.50;;
61112;SDS011;47184;57.998;56.184;2022-09-21T03:19:34;4.15;;;2.05;;
61112;SDS011;47184;57.998;56.184;2022-09-21T03:22:00;6.10;;;2.83;;
61112;SDS011;47184;57.998;56.184;2022-09-21T03:24:26;11.27;;;3.33;;
61112;SDS011;47184;57.998;56.184;2022-09-21T03:27:10;3.78;;;1.33;;
61112;SDS011;47184;57.998;56.184;2022-09-21T03:29:37;3.35;;;1.98;;
61112;SDS011;47184;57.998;56.184;2022-09-21T03:32:03;3.10;;;1.55;;
61112;SDS011;47184;57.998;56.184;2022-09-21T03:34:29;9.18;;;3.22;;
61112;SDS011;47184;57.998;56.184;2022-09-21T03:37:02;13.20;;;3.13;;
61112;SDS011;47184;57.998;56.184;2022-09-21T03:39:30;8.45;;;2.90;;
61112;SDS011;47184;57.998;56.184;2022-09-21T03:41:56;5.95;;;2.65;;
61112;SDS011;47184;57.998;56.184;2022-09-21T03:44:23;5.47;;;2.22;;
61112;SDS011;47184;57.998;56.184;2022-09-21T03:46:50;3.67;;;2.05;;
61112;SDS011;47184;57.998;56.184;2022-09-21T03:49:16;14.07;;;3.10;;
61112;SDS011;47184;57.998;56.184;2022-09-21T03:51:43;9.18;;;2.78;;
61112;SDS011;47184;57.998;56.184;2022-09-21T03:54:10;7.72;;;1.95;;
61112;SDS011;47184;57.998;56.184;2022-09-21T03:56:36;6.55;;;2.33;;
61112;SDS011;47184;57.998;56.184;2022-09-21T03:59:03;5.45;;;2.75;;
61112;SDS011;47184;57.998;56.184;2022-09-21T04:01:29;6.60;;;3.33;;
61112;SDS011;47184;57.998;56.184;2022-09-21T04:03:55;9.15;;;3.17;;
61112;SDS011;47184;57.998;56.184;2022-09-21T04:06:21;7.70;;;3.50;;
61112;SDS011;47184;57.998;56.184;2022-09-21T04:08:48;17.48;;;3.42;;
61112;SDS011;47184;57.998;56.184;2022-09-21T04:11:16;13.57;;;3.10;;
61112;SDS011;47184;57.998;56.184;2022-09-21T04:13:43;5.30;;;2.63;;
61112;SDS011;47184;57.998;56.184;2022-09-21T04:16:15;5.80;;;3.08;;
61112;SDS011;47184;57.998;56.184;2022-09-21T04:18:42;2.80;;;1.55;;
61112;SDS011;47184;57.998;56.184;2022-09-21T04:21:08;7.18;;;2.70;;
61112;SDS011;47184;57.998;56.184;2022-09-21T04:23:34;11.02;;;2.25;;
61112;SDS011;47184;57.998;56.184;2022-09-21T04:26:00;2.80;;;1.92;;
61112;SDS011;47184;57.998;56.184;2022-09-21T04:28:26;8.20;;;2.42;;
61112;SDS011;47184;57.998;56.184;2022-09-21T04:30:53;11.07;;;2.10;;
61112;SDS011;47184;57.998;56.184;2022-09-21T04:33:20;7.25;;;2.20;;
61112;SDS011;47184;57.998;56.184;2022-09-21T04:35:53;12.10;;;3.33;;
61112;SDS011;47184;57.998;56.184;2022-09-21T04:38:20;19.13;;;2.97;;
61112;SDS011;47184;57.998;56.184;2022-09-21T04:40:53;11.82;;;2.90;;
61112;SDS011;47184;57.998;56.184;2022-09-21T04:43:20;5.30;;;2.28;;
61112;SDS011;47184;57.998;56.184;2022-09-21T04:45:47;13.30;;;2.72;;
61112;SDS011;47184;57.998;56.184;2022-09-21T04:48:13;9.95;;;2.85;;
61112;SDS011;47184;57.998;56.184;2022-09-21T04:50:39;16.02;;;2.53;;
61112;SDS011;47184;57.998;56.184;2022-09-21T04:53:08;6.40;;;2.53;;
61112;SDS011;47184;57.998;56.184;2022-09-21T04:55:34;35.85;;;5.22;;
61112;SDS011;47184;57.998;56.184;2022-09-21T04:58:00;4.68;;;1.92;;
61112;SDS011;47184;57.998;56.184;2022-09-21T05:00:26;6.90;;;2.67;;
61112;SDS011;47184;57.998;56.184;2022-09-21T05:02:52;5.35;;;1.73;;
61112;SDS011;47184;57.998;56.184;2022-09-21T05:05:18;5.72;;;2.53;;
61112;SDS011;47184;57.998;56.184;2022-09-21T05:07:45;5.68;;;2.42;;
61112;SDS011;47184;57.998;56.184;2022-09-21T05:10:11;6.18;;;2.80;;
61112;SDS011;47184;57.998;56.184;2022-09-21T05:12:37;2.03;;;1.27;;
61112;SDS011;47184;57.998;56.184;2022-09-21T05:15:03;3.47;;;1.70;;
61112;SDS011;47184;57.998;56.184;2022-09-21T05:17:30;3.97;;;1.50;;
61112;SDS011;47184;57.998;56.184;2022-09-21T05:19:56;8.20;;;1.67;;
61112;SDS011;47184;57.998;56.184;2022-09-21T05:22:22;7.75;;;2.40;;
61112;SDS011;47184;57.998;56.184;2022-09-21T05:24:48;8.88;;;2.30;;
61112;SDS011;47184;57.998;56.184;2022-09-21T05:27:14;4.40;;;1.90;;
61112;SDS011;47184;57.998;56.184;2022-09-21T05:29:41;9.75;;;1.95;;
61112;SDS011;47184;57.998;56.184;2022-09-21T05:32:16;7.70;;;2.03;;
61112;SDS011;47184;57.998;56.184;2022-09-21T05:38:00;12.30;;;1.90;;
61112;SDS011;47184;57.998;56.184;2022-09-21T05:40:33;7.85;;;1.45;;
61112;SDS011;47184;57.998;56.184;2022-09-21T05:42:59;6.38;;;1.90;;
61112;SDS011;47184;57.998;56.184;2022-09-21T05:45:25;4.65;;;1.80;;
61112;SDS011;47184;57.998;56.184;2022-09-21T05:53:13;2.53;;;1.38;;
61112;SDS011;47184;57.998;56.184;2022-09-21T05:56:05;9.88;;;2.80;;
61112;SDS011;47184;57.998;56.184;2022-09-21T06:02:21;3.25;;;1.10;;
61112;SDS011;47184;57.998;56.184;2022-09-21T06:04:38;8.48;;;1.92;;
61112;SDS011;47184;57.998;56.184;2022-09-21T06:07:04;3.33;;;1.67;;
61112;SDS011;47184;57.998;56.184;2022-09-21T06:09:30;6.63;;;1.83;;
61112;SDS011;47184;57.998;56.184;2022-09-21T06:11:57;10.57;;;2.03;;
61112;SDS011;47184;57.998;56.184;2022-09-21T06:14:24;12.18;;;1.77;;
61112;SDS011;47184;57.998;56.184;2022-09-21T06:16:51;3.03;;;1.60;;
61112;SDS011;47184;57.998;56.184;2022-09-21T06:19:17;4.57;;;2.08;;
61112;SDS011;47184;57.998;56.184;2022-09-21T06:21:43;3.08;;;1.20;;
61112;SDS011;47184;57.998;56.184;2022-09-21T06:24:10;3.95;;;1.75;;
61112;SDS011;47184;57.998;56.184;2022-09-21T06:26:36;4.07;;;1.73;;
61112;SDS011;47184;57.998;56.184;2022-09-21T06:29:03;10.45;;;1.60;;
61112;SDS011;47184;57.998;56.184;2022-09-21T06:31:29;8.18;;;1.90;;
61112;SDS011;47184;57.998;56.184;2022-09-21T06:33:58;2.30;;;1.33;;
61112;SDS011;47184;57.998;56.184;2022-09-21T06:36:27;9.75;;;1.30;;
61112;SDS011;47184;57.998;56.184;2022-09-21T06:38:53;8.88;;;1.90;;
61112;SDS011;47184;57.998;56.184;2022-09-21T06:41:19;8.15;;;2.10;;
61112;SDS011;47184;57.998;56.184;2022-09-21T06:43:45;1.42;;;0.75;;
61112;SDS011;47184;57.998;56.184;2022-09-21T06:46:11;6.32;;;1.63;;
61112;SDS011;47184;57.998;56.184;2022-09-21T06:48:37;4.28;;;1.27;;
61112;SDS011;47184;57.998;56.184;2022-09-21T06:51:04;6.70;;;1.50;;
61112;SDS011;47184;57.998;56.184;2022-09-21T06:53:32;5.40;;;1.42;;
61112;SDS011;47184;57.998;56.184;2022-09-21T06:56:03;2.53;;;1.30;;
61112;SDS011;47184;57.998;56.184;2022-09-21T06:58:31;3.05;;;1.05;;
61112;SDS011;47184;57.998;56.184;2022-09-21T07:01:05;3.38;;;1.27;;
61112;SDS011;47184;57.998;56.184;2022-09-21T07:03:33;7.43;;;2.08;;
61112;SDS011;47184;57.998;56.184;2022-09-21T07:06:02;8.95;;;1.60;;
61112;SDS011;47184;57.998;56.184;2022-09-21T07:08:28;5.18;;;1.58;;
61112;SDS011;47184;57.998;56.184;2022-09-21T07:10:58;4.15;;;0.90;;
61112;SDS011;47184;57.998;56.184;2022-09-21T07:13:25;8.35;;;1.02;;
61112;SDS011;47184;57.998;56.184;2022-09-21T07:15:52;2.75;;;0.77;;
61112;SDS011;47184;57.998;56.184;2022-09-21T07:18:18;8.68;;;1.52;;
61112;SDS011;47184;57.998;56.184;2022-09-21T07:20:44;8.77;;;1.40;;
61112;SDS011;47184;57.998;56.184;2022-09-21T07:23:10;4.13;;;1.13;;
61112;SDS011;47184;57.998;56.184;2022-09-21T07:25:40;2.03;;;0.50;;
61112;SDS011;47184;57.998;56.184;2022-09-21T07:28:06;2.00;;;0.77;;
61112;SDS011;47184;57.998;56.184;2022-09-21T07:45:31;4.05;;;0.82;;
61112;SDS011;47184;57.998;56.184;2022-09-21T07:48:03;0.50;;;0.30;;
61112;SDS011;47184;57.998;56.184;2022-09-21T07:50:30;6.33;;;0.53;;
61112;SDS011;47184;57.998;56.184;2022-09-21T07:52:58;2.00;;;0.75;;
61112;SDS011;47184;57.998;56.184;2022-09-21T07:55:26;1.17;;;0.73;;
61112;SDS011;47184;57.998;56.184;2022-09-21T07:57:52;0.95;;;0.63;;
61112;SDS011;47184;57.998;56.184;2022-09-21T08:00:36;2.25;;;0.85;;
61112;SDS011;47184;57.998;56.184;2022-09-21T08:03:03;8.65;;;1.10;;
61112;SDS011;47184;57.998;56.184;2022-09-21T08:05:30;0.77;;;0.40;;
61112;SDS011;47184;57.998;56.184;2022-09-21T08:07:57;4.10;;;0.80;;
61112;SDS011;47184;57.998;56.184;2022-09-21T08:10:24;1.88;;;0.43;;
61112;SDS011;47184;57.998;56.184;2022-09-21T08:12:54;4.68;;;1.33;;
61112;SDS011;47184;57.998;56.184;2022-09-21T08:15:21;2.28;;;0.90;;
61112;SDS011;47184;57.998;56.184;2022-09-21T08:17:47;4.03;;;0.60;;
61112;SDS011;47184;57.998;56.184;2022-09-21T08:20:14;1.73;;;0.68;;
61112;SDS011;47184;57.998;56.184;2022-09-21T08:22:40;0.73;;;0.50;;
61112;SDS011;47184;57.998;56.184;2022-09-21T08:25:07;1.08;;;0.60;;
61112;SDS011;47184;57.998;56.184;2022-09-21T08:27:35;5.65;;;1.05;;
61112;SDS011;47184;57.998;56.184;2022-09-21T08:30:02;2.75;;;0.70;;
61112;SDS011;47184;57.998;56.184;2022-09-21T08:32:29;0.60;;;0.57;;
61112;SDS011;47184;57.998;56.184;2022-09-21T08:34:55;1.90;;;0.90;;
61112;SDS011;47184;57.998;56.184;2022-09-21T08:37:21;0.52;;;0.40;;
61112;SDS011;47184;57.998;56.184;2022-09-21T08:39:47;0.70;;;0.43;;
61112;SDS011;47184;57.998;56.184;2022-09-21T08:42:19;6.95;;;0.68;;
61112;SDS011;47184;57.998;56.184;2022-09-21T08:45:15;0.30;;;0.25;;
61112;SDS011;47184;57.998;56.184;2022-09-21T08:47:54;1.25;;;0.70;;
61112;SDS011;47184;57.998;56.184;2022-09-21T08:50:40;3.05;;;1.17;;
61112;SDS011;47184;57.998;56.184;2022-09-21T08:55:43;2.08;;;1.00;;
61112;SDS011;47184;57.998;56.184;2022-09-21T08:58:14;6.88;;;0.90;;
61112;SDS011;47184;57.998;56.184;2022-09-21T09:01:14;1.00;;;0.55;;
61112;SDS011;47184;57.998;56.184;2022-09-21T09:07:05;1.83;;;0.70;;
61112;SDS011;47184;57.998;56.184;2022-09-21T09:17:18;1.27;;;0.85;;
61112;SDS011;47184;57.998;56.184;2022-09-21T09:26:01;3.15;;;1.10;;
61112;SDS011;47184;57.998;56.184;2022-09-21T09:28:43;4.53;;;0.90;;
61112;SDS011;47184;57.998;56.184;2022-09-21T09:31:18;4.28;;;1.13;;
61112;SDS011;47184;57.998;56.184;2022-09-21T09:33:59;2.63;;;0.90;;
61112;SDS011;47184;57.998;56.184;2022-09-21T09:36:36;2.28;;;1.08;;
61112;SDS011;47184;57.998;56.184;2022-09-21T09:39:12;1.35;;;0.90;;
61112;SDS011;47184;57.998;56.184;2022-09-21T09:50:07;5.13;;;1.50;;
61112;SDS011;47184;57.998;56.184;2022-09-21T09:52:40;1.52;;;0.93;;
61112;SDS011;47184;57.998;56.184;2022-09-21T09:55:16;1.83;;;0.80;;
61112;SDS011;47184;57.998;56.184;2022-09-21T09:57:46;5.40;;;1.00;;
61112;SDS011;47184;57.998;56.184;2022-09-21T10:00:14;1.95;;;1.10;;
61112;SDS011;47184;57.998;56.184;2022-09-21T10:05:32;5.20;;;1.80;;
61112;SDS011;47184;57.998;56.184;2022-09-21T10:08:03;7.88;;;1.40;;
61112;SDS011;47184;57.998;56.184;2022-09-21T10:10:36;4.95;;;1.55;;
61112;SDS011;47184;57.998;56.184;2022-09-21T10:15:37;2.58;;;0.88;;
61112;SDS011;47184;57.998;56.184;2022-09-21T10:18:17;4.13;;;0.90;;
61112;SDS011;47184;57.998;56.184;2022-09-21T10:21:02;8.60;;;0.95;;
61112;SDS011;47184;57.998;56.184;2022-09-21T10:23:31;2.70;;;0.88;;
61112;SDS011;47184;57.998;56.184;2022-09-21T10:28:24;3.50;;;0.73;;
61112;SDS011;47184;57.998;56.184;2022-09-21T10:31:06;1.70;;;0.77;;
61112;SDS011;47184;57.998;56.184;2022-09-21T10:33:44;0.95;;;0.65;;
61112;SDS011;47184;57.998;56.184;2022-09-21T10:36:28;1.38;;;0.80;;
61112;SDS011;47184;57.998;56.184;2022-09-21T10:39:14;1.70;;;0.82;;
61112;SDS011;47184;57.998;56.184;2022-09-21T10:41:42;1.85;;;0.85;;
61112;SDS011;47184;57.998;56.184;2022-09-21T10:44:18;2.38;;;0.73;;
61112;SDS011;47184;57.998;56.184;2022-09-21T10:46:47;1.67;;;0.70;;
61112;SDS011;47184;57.998;56.184;2022-09-21T10:49:23;1.73;;;0.55;;
61112;SDS011;47184;57.998;56.184;2022-09-21T10:51:53;2.50;;;0.70;;
61112;SDS011;47184;57.998;56.184;2022-09-21T10:54:29;2.80;;;1.00;;
61112;SDS011;47184;57.998;56.184;2022-09-21T10:57:01;2.85;;;0.88;;
61112;SDS011;47184;57.998;56.184;2022-09-21T10:59:32;2.63;;;0.80;;
61112;SDS011;47184;57.998;56.184;2022-09-21T11:02:02;1.00;;;0.68;;
61112;SDS011;47184;57.998;56.184;2022-09-21T11:05:10;6.57;;;1.20;;
61112;SDS011;47184;57.998;56.184;2022-09-21T11:13:24;7.75;;;0.90;;
61112;SDS011;47184;57.998;56.184;2022-09-21T11:26:45;8.82;;;1.65;;
61112;SDS011;47184;57.998;56.184;2022-09-21T11:29:41;1.42;;;0.70;;
61112;SDS011;47184;57.998;56.184;2022-09-21T11:32:41;1.77;;;1.10;;
61112;SDS011;47184;57.998;56.184;2022-09-21T11:46:43;2.72;;;0.80;;
61112;SDS011;47184;57.998;56.184;2022-09-21T11:57:39;9.80;;;1.48;;
61112;SDS011;47184;57.998;56.184;2022-09-21T12:00:26;1.13;;;0.70;;
61112;SDS011;47184;57.998;56.184;2022-09-21T12:08:57;2.35;;;1.10;;
61112;SDS011;47184;57.998;56.184;2022-09-21T12:22:11;6.65;;;1.58;;
61112;SDS011;47184;57.998;56.184;2022-09-21T12:24:43;2.83;;;1.63;;
61112;SDS011;47184;57.998;56.184;2022-09-21T12:27:27;9.18;;;4.13;;
61112;SDS011;47184;57.998;56.184;2022-09-21T12:30:06;6.75;;;1.90;;
61112;SDS011;47184;57.998;56.184;2022-09-21T12:35:17;13.25;;;1.83;;
61112;SDS011;47184;57.998;56.184;2022-09-21T12:38:15;12.50;;;3.63;;
61112;SDS011;47184;57.998;56.184;2022-09-21T12:46:05;11.52;;;2.08;;
61112;SDS011;47184;57.998;56.184;2022-09-21T12:48:36;6.30;;;2.15;;
61112;SDS011;47184;57.998;56.184;2022-09-21T12:53:38;4.35;;;1.98;;
61112;SDS011;47184;57.998;56.184;2022-09-21T12:58:56;12.68;;;2.20;;
61112;SDS011;47184;57.998;56.184;2022-09-21T13:02:00;5.95;;;2.20;;
61112;SDS011;47184;57.998;56.184;2022-09-21T13:07:14;21.15;;;3.60;;
61112;SDS011;47184;57.998;56.184;2022-09-21T13:10:07;13.75;;;3.70;;
61112;SDS011;47184;57.998;56.184;2022-09-21T13:13:04;8.90;;;2.97;;
61112;SDS011;47184;57.998;56.184;2022-09-21T13:15:43;4.03;;;1.92;;
61112;SDS011;47184;57.998;56.184;2022-09-21T13:18:17;7.57;;;2.30;;
61112;SDS011;47184;57.998;56.184;2022-09-21T13:20:47;18.67;;;2.60;;
61112;SDS011;47184;57.998;56.184;2022-09-21T13:23:37;9.82;;;1.98;;
61112;SDS011;47184;57.998;56.184;2022-09-21T13:26:07;6.40;;;1.80;;
61112;SDS011;47184;57.998;56.184;2022-09-21T13:34:42;3.60;;;1.35;;
61112;SDS011;47184;57.998;56.184;2022-09-21T13:44:58;11.68;;;2.55;;
61112;SDS011;47184;57.998;56.184;2022-09-21T13:49:58;29.33;;;3.65;;
61112;SDS011;47184;57.998;56.184;2022-09-21T13:52:30;36.05;;;5.13;;
61112;SDS011;47184;57.998;56.184;2022-09-21T13:55:05;20.02;;;3.25;;
61112;SDS011;47184;57.998;56.184;2022-09-21T13:57:54;11.73;;;3.05;;
61112;SDS011;47184;57.998;56.184;2022-09-21T14:00:27;9.05;;;2.92;;
61112;SDS011;47184;57.998;56.184;2022-09-21T14:10:38;11.25;;;3.67;;
61112;SDS011;47184;57.998;56.184;2022-09-21T14:13:25;8.80;;;3.30;;
61112;SDS011;47184;57.998;56.184;2022-09-21T14:18:56;13.23;;;3.10;;
61112;SDS011;47184;57.998;56.184;2022-09-21T14:21:22;16.67;;;3.08;;
61112;SDS011;47184;57.998;56.184;2022-09-21T14:26:58;10.27;;;2.90;;
61112;SDS011;47184;57.998;56.184;2022-09-21T14:29:44;23.95;;;3.58;;
61112;SDS011;47184;57.998;56.184;2022-09-21T14:32:24;20.10;;;4.47;;
61112;SDS011;47184;57.998;56.184;2022-09-21T14:34:55;12.88;;;3.55;;
61112;SDS011;47184;57.998;56.184;2022-09-21T14:37:29;9.98;;;3.20;;
61112;SDS011;47184;57.998;56.184;2022-09-21T14:39:59;17.42;;;4.10;;
61112;SDS011;47184;57.998;56.184;2022-09-21T14:42:31;17.25;;;3.55;;
61112;SDS011;47184;57.998;56.184;2022-09-21T14:44:58;16.20;;;4.40;;
61112;SDS011;47184;57.998;56.184;2022-09-21T14:50:40;12.52;;;5.28;;
61112;SDS011;47184;57.998;56.184;2022-09-21T14:59:31;14.95;;;5.35;;
61112;SDS011;47184;57.998;56.184;2022-09-21T15:08:07;18.45;;;6.13;;
61112;SDS011;47184;57.998;56.184;2022-09-21T15:11:08;16.92;;;5.82;;
61112;SDS011;47184;57.998;56.184;2022-09-21T15:16:41;18.58;;;5.53;;
61112;SDS011;47184;57.998;56.184;2022-09-21T15:24:20;23.05;;;5.88;;
61112;SDS011;47184;57.998;56.184;2022-09-21T15:26:52;13.45;;;5.55;;
61112;SDS011;47184;57.998;56.184;2022-09-21T15:29:27;14.50;;;7.05;;
61112;SDS011;47184;57.998;56.184;2022-09-21T15:31:55;15.10;;;5.90;;
61112;SDS011;47184;57.998;56.184;2022-09-21T15:34:23;20.52;;;6.55;;
61112;SDS011;47184;57.998;56.184;2022-09-21T15:36:50;15.57;;;5.70;;
61112;SDS011;47184;57.998;56.184;2022-09-21T15:39:24;16.88;;;6.00;;
61112;SDS011;47184;57.998;56.184;2022-09-21T15:44:45;17.90;;;5.38;;
61112;SDS011;47184;57.998;56.184;2022-09-21T15:47:13;13.15;;;5.30;;
61112;SDS011;47184;57.998;56.184;2022-09-21T15:49:42;25.25;;;5.82;;
61112;SDS011;47184;57.998;56.184;2022-09-21T15:52:12;18.60;;;5.50;;
61112;SDS011;47184;57.998;56.184;2022-09-21T15:54:42;12.68;;;4.55;;
61112;SDS011;47184;57.998;56.184;2022-09-21T15:59:51;16.55;;;5.05;;
61112;SDS011;47184;57.998;56.184;2022-09-21T16:02:20;20.45;;;7.00;;
61112;SDS011;47184;57.998;56.184;2022-09-21T16:04:49;29.20;;;9.00;;
61112;SDS011;47184;57.998;56.184;2022-09-21T16:07:24;21.80;;;8.18;;
61112;SDS011;47184;57.998;56.184;2022-09-21T16:09:51;23.40;;;7.00;;
61112;SDS011;47184;57.998;56.184;2022-09-21T16:12:36;27.38;;;7.20;;
61112;SDS011;47184;57.998;56.184;2022-09-21T16:15:13;18.63;;;7.40;;
61112;SDS011;47184;57.998;56.184;2022-09-21T16:17:51;17.27;;;6.32;;
61112;SDS011;47184;57.998;56.184;2022-09-21T16:20:20;29.80;;;6.25;;
61112;SDS011;47184;57.998;56.184;2022-09-21T16:22:52;16.88;;;5.88;;
61112;SDS011;47184;57.998;56.184;2022-09-21T16:25:32;18.83;;;4.68;;
61112;SDS011;47184;57.998;56.184;2022-09-21T16:30:44;24.02;;;6.40;;
61112;SDS011;47184;57.998;56.184;2022-09-21T16:38:50;20.80;;;5.22;;
61112;SDS011;47184;57.998;56.184;2022-09-21T16:41:22;18.52;;;5.13;;
61112;SDS011;47184;57.998;56.184;2022-09-21T16:43:57;13.82;;;4.32;;
61112;SDS011;47184;57.998;56.184;2022-09-21T16:46:25;18.95;;;4.70;;
61112;SDS011;47184;57.998;56.184;2022-09-21T16:48:52;12.85;;;5.20;;
61112;SDS011;47184;57.998;56.184;2022-09-21T16:51:19;15.18;;;4.68;;
61112;SDS011;47184;57.998;56.184;2022-09-21T16:53:51;10.32;;;4.65;;
61112;SDS011;47184;57.998;56.184;2022-09-21T16:56:17;10.57;;;4.65;;
61112;SDS011;47184;57.998;56.184;2022-09-21T16:58:44;13.55;;;4.38;;
61112;SDS011;47184;57.998;56.184;2022-09-21T17:01:17;12.60;;;3.90;;
61112;SDS011;47184;57.998;56.184;2022-09-21T17:03:45;19.42;;;4.47;;
61112;SDS011;47184;57.998;56.184;2022-09-21T17:06:19;12.65;;;4.38;;
61112;SDS011;47184;57.998;56.184;2022-09-21T17:08:48;23.88;;;6.00;;
61112;SDS011;47184;57.998;56.184;2022-09-21T17:11:14;16.65;;;5.32;;
61112;SDS011;47184;57.998;56.184;2022-09-21T17:13:47;12.18;;;4.47;;
61112;SDS011;47184;57.998;56.184;2022-09-21T17:16:14;12.43;;;4.50;;
61112;SDS011;47184;57.998;56.184;2022-09-21T17:18:46;19.08;;;5.50;;
61112;SDS011;47184;57.998;56.184;2022-09-21T17:21:13;42.97;;;6.93;;
61112;SDS011;47184;57.998;56.184;2022-09-21T17:23:40;21.98;;;5.25;;
61112;SDS011;47184;57.998;56.184;2022-09-21T17:26:11;33.80;;;6.10;;
61112;SDS011;47184;57.998;56.184;2022-09-21T17:28:43;30.83;;;5.32;;
61112;SDS011;47184;57.998;56.184;2022-09-21T17:31:10;21.45;;;5.57;;
61112;SDS011;47184;57.998;56.184;2022-09-21T17:33:38;19.73;;;5.55;;
61112;SDS011;47184;57.998;56.184;2022-09-21T17:36:05;10.55;;;4.78;;
61112;SDS011;47184;57.998;56.184;2022-09-21T17:38:33;9.75;;;4.78;;
61112;SDS011;47184;57.998;56.184;2022-09-21T17:41:01;21.65;;;6.00;;
61112;SDS011;47184;57.998;56.184;2022-09-21T17:43:37;13.93;;;4.95;;
61112;SDS011;47184;57.998;56.184;2022-09-21T17:46:15;13.38;;;5.00;;
61112;SDS011;47184;57.998;56.184;2022-09-21T17:48:49;17.10;;;6.20;;
61112;SDS011;47184;57.998;56.184;2022-09-21T17:51:15;26.92;;;6.13;;
61112;SDS011;47184;57.998;56.184;2022-09-21T17:54:02;18.95;;;5.72;;
61112;SDS011;47184;57.998;56.184;2022-09-21T17:56:39;17.30;;;5.57;;
61112;SDS011;47184;57.998;56.184;2022-09-21T17:59:31;20.43;;;5.20;;
61112;SDS011;47184;57.998;56.184;2022-09-21T18:01:59;24.23;;;5.70;;
61112;SDS011;47184;57.998;56.184;2022-09-21T18:04:27;60.75;;;7.20;;
61112;SDS011;47184;57.998;56.184;2022-09-21T18:06:55;23.83;;;6.28;;
61112;SDS011;47184;57.998;56.184;2022-09-21T18:09:21;25.98;;;5.97;;
61112;SDS011;47184;57.998;56.184;2022-09-21T18:25:49;21.02;;;6.28;;
61112;SDS011;47184;57.998;56.184;2022-09-21T18:28:22;25.88;;;7.07;;
61112;SDS011;47184;57.998;56.184;2022-09-21T18:33:53;38.58;;;6.65;;
61112;SDS011;47184;57.998;56.184;2022-09-21T18:36:31;143.35;;;13.18;;
61112;SDS011;47184;57.998;56.184;2022-09-21T18:41:51;39.92;;;7.20;;
61112;SDS011;47184;57.998;56.184;2022-09-21T18:45:04;29.38;;;6.28;;
61112;SDS011;47184;57.998;56.184;2022-09-21T18:47:45;23.70;;;6.65;;
61112;SDS011;47184;57.998;56.184;2022-09-21T18:55:27;59.63;;;7.60;;
61112;SDS011;47184;57.998;56.184;2022-09-21T18:57:57;70.10;;;8.95;;
61112;SDS011;47184;57.998;56.184;2022-09-21T19:00:26;38.50;;;8.20;;
61112;SDS011;47184;57.998;56.184;2022-09-21T19:03:00;36.67;;;8.25;;
61112;SDS011;47184;57.998;56.184;2022-09-21T19:05:28;37.55;;;8.38;;
61112;SDS011;47184;57.998;56.184;2022-09-21T19:10:44;36.90;;;9.13;;